sensor_id;sensor_type;location;lat;lon;timestamp;temperature;humidity
7216;DHT22;3649;48.798;9.798;2022-12-07T00:01:23;8.30;99.90
7216;DHT22;3649;48.798;9.798;2022-12-07T00:03:52;8.30;99.90
7216;DHT22;3649;48.798;9.798;2022-12-07T00:06:20;8.30;99.90
7216;DHT22;3649;48.798;9.798;2022-12-07T00:08:47;8.30;99.90
7216;DHT22;3649;48.798;9.798;2022-12-07T00:11:17;8.30;99.90
7216;DHT22;3649;48.798;9.798;2022-12-07T00:13:45;8.40;99.90
7216;DHT22;3649;48.798;9.798;2022-12-07T00:16:18;8.40;99.90
7216;DHT22;3649;48.798;9.798;2022-12-07T00:18:47;8.40;99.90
7216;DHT22;3649;48.798;9.798;2022-12-07T00:21:20;8.40;99.90
7216;DHT22;3649;48.798;9.798;2022-12-07T00:23:48;8.50;99.90
7216;DHT22;3649;48.798;9.798;2022-12-07T00:28:47;8.40;99.90
7216;DHT22;3649;48.798;9.798;2022-12-07T00:31:15;8.40;99.90
7216;DHT22;3649;48.798;9.798;2022-12-07T00:33:43;8.40;99.90
7216;DHT22;3649;48.798;9.798;2022-12-07T00:36:13;8.40;99.90
7216;DHT22;3649;48.798;9.798;2022-12-07T00:38:40;8.50;99.90
7216;DHT22;3649;48.798;9.798;2022-12-07T00:41:16;8.30;99.90
7216;DHT22;3649;48.798;9.798;2022-12-07T00:43:44;8.40;99.90
7216;DHT22;3649;48.798;9.798;2022-12-07T00:46:12;8.40;99.90
7216;DHT22;3649;48.798;9.798;2022-12-07T00:48:39;8.40;99.90
7216;DHT22;3649;48.798;9.798;2022-12-07T00:51:07;8.40;99.90
7216;DHT22;3649;48.798;9.798;2022-12-07T00:53:35;8.50;99.90
7216;DHT22;3649;48.798;9.798;2022-12-07T00:56:18;8.30;99.90
7216;DHT22;3649;48.798;9.798;2022-12-07T00:58:50;8.40;99.90
7216;DHT22;3649;48.798;9.798;2022-12-07T01:01:17;8.40;99.90
7216;DHT22;3649;48.798;9.798;2022-12-07T01:03:44;8.40;99.90
7216;DHT22;3649;48.798;9.798;2022-12-07T01:06:18;8.40;99.90
7216;DHT22;3649;48.798;9.798;2022-12-07T01:08:54;8.40;99.90
7216;DHT22;3649;48.798;9.798;2022-12-07T01:11:24;8.40;99.90
7216;DHT22;3649;48.798;9.798;2022-12-07T01:13:52;8.40;99.90
7216;DHT22;3649;48.798;9.798;2022-12-07T01:16:20;8.50;99.90
7216;DHT22;3649;48.798;9.798;2022-12-07T01:18:49;8.40;99.90
7216;DHT22;3649;48.798;9.798;2022-12-07T01:21:29;8.50;99.90
7216;DHT22;3649;48.798;9.798;2022-12-07T01:23:57;8.40;99.90
7216;DHT22;3649;48.798;9.798;2022-12-07T01:26:25;8.50;99.90
7216;DHT22;3649;48.798;9.798;2022-12-07T01:28:52;8.30;99.90
7216;DHT22;3649;48.798;9.798;2022-12-07T01:31:24;8.40;99.90
7216;DHT22;3649;48.798;9.798;2022-12-07T01:33:55;8.40;99.90
7216;DHT22;3649;48.798;9.798;2022-12-07T01:36:33;8.40;99.90
7216;DHT22;3649;48.798;9.798;2022-12-07T01:39:04;8.50;99.90
7216;DHT22;3649;48.798;9.798;2022-12-07T01:41:34;8.40;99.90
7216;DHT22;3649;48.798;9.798;2022-12-07T01:44:22;8.40;99.90
7216;DHT22;3649;48.798;9.798;2022-12-07T01:46:54;8.40;99.90
7216;DHT22;3649;48.798;9.798;2022-12-07T01:49:31;8.40;99.90
7216;DHT22;3649;48.798;9.798;2022-12-07T01:52:19;8.50;99.90
7216;DHT22;3649;48.798;9.798;2022-12-07T01:54:48;8.50;99.90
7216;DHT22;3649;48.798;9.798;2022-12-07T01:57:17;8.50;99.90
7216;DHT22;3649;48.798;9.798;2022-12-07T01:59:49;9.10;99.90
7216;DHT22;3649;48.798;9.798;2022-12-07T02:02:30;8.50;99.90
7216;DHT22;3649;48.798;9.798;2022-12-07T02:05:00;8.40;99.90
7216;DHT22;3649;48.798;9.798;2022-12-07T02:07:27;8.30;99.90
7216;DHT22;3649;48.798;9.798;2022-12-07T02:09:55;8.40;99.90
7216;DHT22;3649;48.798;9.798;2022-12-07T02:12:23;8.40;99.90
7216;DHT22;3649;48.798;9.798;2022-12-07T02:14:51;8.40;99.90
7216;DHT22;3649;48.798;9.798;2022-12-07T02:20:33;8.50;99.90
7216;DHT22;3649;48.798;9.798;2022-12-07T02:28:34;8.40;99.90
7216;DHT22;3649;48.798;9.798;2022-12-07T02:31:14;8.40;99.90
7216;DHT22;3649;48.798;9.798;2022-12-07T02:33:50;8.30;99.90
7216;DHT22;3649;48.798;9.798;2022-12-07T02:36:27;8.20;99.90
7216;DHT22;3649;48.798;9.798;2022-12-07T02:38:59;8.10;99.90
7216;DHT22;3649;48.798;9.798;2022-12-07T02:41:31;8.10;99.90
7216;DHT22;3649;48.798;9.798;2022-12-07T02:44:07;8.20;99.90
7216;DHT22;3649;48.798;9.798;2022-12-07T02:46:39;8.20;99.90
7216;DHT22;3649;48.798;9.798;2022-12-07T02:49:08;8.20;99.90
7216;DHT22;3649;48.798;9.798;2022-12-07T02:51:40;8.30;99.90
7216;DHT22;3649;48.798;9.798;2022-12-07T02:54:19;8.30;99.90
7216;DHT22;3649;48.798;9.798;2022-12-07T02:56:50;8.40;99.90
7216;DHT22;3649;48.798;9.798;2022-12-07T02:59:35;8.30;99.90
7216;DHT22;3649;48.798;9.798;2022-12-07T03:07:29;8.20;99.90
7216;DHT22;3649;48.798;9.798;2022-12-07T03:18:34;8.20;99.90
7216;DHT22;3649;48.798;9.798;2022-12-07T03:21:11;8.10;99.90
7216;DHT22;3649;48.798;9.798;2022-12-07T03:23:42;8.30;99.90
7216;DHT22;3649;48.798;9.798;2022-12-07T03:26:13;8.20;99.90
7216;DHT22;3649;48.798;9.798;2022-12-07T03:28:45;8.10;99.90
7216;DHT22;3649;48.798;9.798;2022-12-07T03:31:25;8.10;99.90
7216;DHT22;3649;48.798;9.798;2022-12-07T03:41:44;8.10;99.90
7216;DHT22;3649;48.798;9.798;2022-12-07T03:44:12;8.10;99.90
7216;DHT22;3649;48.798;9.798;2022-12-07T03:52:45;8.10;99.90
7216;DHT22;3649;48.798;9.798;2022-12-07T03:55:26;8.10;99.90
7216;DHT22;3649;48.798;9.798;2022-12-07T03:57:57;8.20;99.90
7216;DHT22;3649;48.798;9.798;2022-12-07T04:00:26;8.10;99.90
7216;DHT22;3649;48.798;9.798;2022-12-07T04:02:53;8.10;99.90
7216;DHT22;3649;48.798;9.798;2022-12-07T04:05:20;8.10;99.90
7216;DHT22;3649;48.798;9.798;2022-12-07T04:07:47;8.10;99.90
7216;DHT22;3649;48.798;9.798;2022-12-07T04:10:14;8.10;99.90
7216;DHT22;3649;48.798;9.798;2022-12-07T04:12:41;8.00;99.90
7216;DHT22;3649;48.798;9.798;2022-12-07T04:15:08;8.00;99.90
7216;DHT22;3649;48.798;9.798;2022-12-07T04:17:35;8.00;99.90
7216;DHT22;3649;48.798;9.798;2022-12-07T04:20:03;8.10;99.90
7216;DHT22;3649;48.798;9.798;2022-12-07T04:22:31;8.10;99.90
7216;DHT22;3649;48.798;9.798;2022-12-07T04:24:58;8.00;99.90
7216;DHT22;3649;48.798;9.798;2022-12-07T04:27:24;8.00;99.90
7216;DHT22;3649;48.798;9.798;2022-12-07T04:29:54;8.00;99.90
7216;DHT22;3649;48.798;9.798;2022-12-07T04:32:23;8.10;99.90
7216;DHT22;3649;48.798;9.798;2022-12-07T04:34:53;8.10;99.90
7216;DHT22;3649;48.798;9.798;2022-12-07T04:37:22;8.00;99.90
7216;DHT22;3649;48.798;9.798;2022-12-07T04:39:49;8.10;99.90
7216;DHT22;3649;48.798;9.798;2022-12-07T04:42:15;8.10;99.90
7216;DHT22;3649;48.798;9.798;2022-12-07T04:44:42;7.90;99.90
7216;DHT22;3649;48.798;9.798;2022-12-07T04:47:12;7.80;99.90
7216;DHT22;3649;48.798;9.798;2022-12-07T04:49:38;7.80;99.90
7216;DHT22;3649;48.798;9.798;2022-12-07T04:52:05;7.90;99.90
7216;DHT22;3649;48.798;9.798;2022-12-07T04:54:32;7.90;99.90
7216;DHT22;3649;48.798;9.798;2022-12-07T04:56:59;7.90;99.90
7216;DHT22;3649;48.798;9.798;2022-12-07T04:59:26;8.10;99.90
7216;DHT22;3649;48.798;9.798;2022-12-07T05:01:53;8.00;99.90
7216;DHT22;3649;48.798;9.798;2022-12-07T05:04:19;8.10;99.90
7216;DHT22;3649;48.798;9.798;2022-12-07T05:06:46;8.10;99.90
7216;DHT22;3649;48.798;9.798;2022-12-07T05:09:13;8.30;99.90
7216;DHT22;3649;48.798;9.798;2022-12-07T05:11:40;8.10;99.90
7216;DHT22;3649;48.798;9.798;2022-12-07T05:14:16;8.10;99.90
7216;DHT22;3649;48.798;9.798;2022-12-07T05:16:45;8.00;99.90
7216;DHT22;3649;48.798;9.798;2022-12-07T05:19:13;8.00;99.90
7216;DHT22;3649;48.798;9.798;2022-12-07T05:21:40;8.00;99.90
7216;DHT22;3649;48.798;9.798;2022-12-07T05:24:09;7.90;99.90
7216;DHT22;3649;48.798;9.798;2022-12-07T05:26:36;7.90;99.90
7216;DHT22;3649;48.798;9.798;2022-12-07T05:29:05;7.90;99.90
7216;DHT22;3649;48.798;9.798;2022-12-07T05:31:33;7.90;99.90
7216;DHT22;3649;48.798;9.798;2022-12-07T05:34:01;7.90;99.90
7216;DHT22;3649;48.798;9.798;2022-12-07T05:36:27;8.00;99.90
7216;DHT22;3649;48.798;9.798;2022-12-07T05:38:55;8.00;99.90
7216;DHT22;3649;48.798;9.798;2022-12-07T05:41:22;8.00;99.90
7216;DHT22;3649;48.798;9.798;2022-12-07T05:44:08;8.10;99.90
7216;DHT22;3649;48.798;9.798;2022-12-07T05:46:34;8.10;99.90
7216;DHT22;3649;48.798;9.798;2022-12-07T05:49:02;8.00;99.90
7216;DHT22;3649;48.798;9.798;2022-12-07T05:51:28;7.90;99.90
7216;DHT22;3649;48.798;9.798;2022-12-07T05:53:55;8.30;99.90
7216;DHT22;3649;48.798;9.798;2022-12-07T05:56:22;8.00;99.90
7216;DHT22;3649;48.798;9.798;2022-12-07T05:58:49;8.10;99.90
7216;DHT22;3649;48.798;9.798;2022-12-07T06:01:35;8.10;99.90
7216;DHT22;3649;48.798;9.798;2022-12-07T06:04:01;7.90;99.90
7216;DHT22;3649;48.798;9.798;2022-12-07T06:06:28;8.00;99.90
7216;DHT22;3649;48.798;9.798;2022-12-07T06:08:55;8.10;99.90
7216;DHT22;3649;48.798;9.798;2022-12-07T06:11:22;8.10;99.90
7216;DHT22;3649;48.798;9.798;2022-12-07T06:14:08;8.10;99.90
7216;DHT22;3649;48.798;9.798;2022-12-07T06:16:34;8.00;99.90
7216;DHT22;3649;48.798;9.798;2022-12-07T06:19:01;8.10;99.90
7216;DHT22;3649;48.798;9.798;2022-12-07T06:21:28;7.90;99.90
7216;DHT22;3649;48.798;9.798;2022-12-07T06:23:55;8.00;99.90
7216;DHT22;3649;48.798;9.798;2022-12-07T06:26:22;8.00;99.90
7216;DHT22;3649;48.798;9.798;2022-12-07T06:28:49;8.00;99.90
7216;DHT22;3649;48.798;9.798;2022-12-07T06:31:16;8.00;99.90
7216;DHT22;3649;48.798;9.798;2022-12-07T06:33:43;8.00;99.90
7216;DHT22;3649;48.798;9.798;2022-12-07T06:36:10;7.90;99.90
7216;DHT22;3649;48.798;9.798;2022-12-07T06:38:38;8.00;99.90
7216;DHT22;3649;48.798;9.798;2022-12-07T06:41:05;8.00;99.90
7216;DHT22;3649;48.798;9.798;2022-12-07T06:43:33;8.00;99.90
7216;DHT22;3649;48.798;9.798;2022-12-07T06:46:00;8.00;99.90
7216;DHT22;3649;48.798;9.798;2022-12-07T06:48:27;8.00;99.90
7216;DHT22;3649;48.798;9.798;2022-12-07T06:50:55;8.10;99.90
7216;DHT22;3649;48.798;9.798;2022-12-07T06:53:22;8.10;99.90
7216;DHT22;3649;48.798;9.798;2022-12-07T06:55:49;8.10;99.90
7216;DHT22;3649;48.798;9.798;2022-12-07T06:58:17;8.00;99.90
7216;DHT22;3649;48.798;9.798;2022-12-07T07:00:44;8.30;99.90
7216;DHT22;3649;48.798;9.798;2022-12-07T07:03:12;8.00;99.90
7216;DHT22;3649;48.798;9.798;2022-12-07T07:05:39;8.00;99.90
7216;DHT22;3649;48.798;9.798;2022-12-07T07:08:07;8.00;99.90
7216;DHT22;3649;48.798;9.798;2022-12-07T07:10:50;8.00;99.90
7216;DHT22;3649;48.798;9.798;2022-12-07T07:13:17;8.10;99.90
7216;DHT22;3649;48.798;9.798;2022-12-07T07:15:44;8.00;99.90
7216;DHT22;3649;48.798;9.798;2022-12-07T07:18:11;8.10;99.90
7216;DHT22;3649;48.798;9.798;2022-12-07T07:20:38;8.10;99.90
7216;DHT22;3649;48.798;9.798;2022-12-07T07:23:05;8.00;99.90
7216;DHT22;3649;48.798;9.798;2022-12-07T07:25:33;8.00;99.90
7216;DHT22;3649;48.798;9.798;2022-12-07T07:28:00;7.90;99.90
7216;DHT22;3649;48.798;9.798;2022-12-07T07:30:27;7.90;99.90
7216;DHT22;3649;48.798;9.798;2022-12-07T07:33:00;7.80;99.90
7216;DHT22;3649;48.798;9.798;2022-12-07T07:35:28;7.80;99.90
7216;DHT22;3649;48.798;9.798;2022-12-07T07:37:56;7.90;99.90
7216;DHT22;3649;48.798;9.798;2022-12-07T07:40:23;7.90;99.90
7216;DHT22;3649;48.798;9.798;2022-12-07T07:42:54;7.90;99.90
7216;DHT22;3649;48.798;9.798;2022-12-07T07:45:23;8.00;99.90
7216;DHT22;3649;48.798;9.798;2022-12-07T07:47:51;7.90;99.90
7216;DHT22;3649;48.798;9.798;2022-12-07T07:50:18;8.00;99.90
7216;DHT22;3649;48.798;9.798;2022-12-07T07:52:45;8.10;99.90
7216;DHT22;3649;48.798;9.798;2022-12-07T07:55:12;8.00;99.90
7216;DHT22;3649;48.798;9.798;2022-12-07T07:57:40;8.00;99.90
7216;DHT22;3649;48.798;9.798;2022-12-07T08:00:10;8.00;99.90
7216;DHT22;3649;48.798;9.798;2022-12-07T08:02:37;7.90;99.90
7216;DHT22;3649;48.798;9.798;2022-12-07T08:05:05;7.90;99.90
7216;DHT22;3649;48.798;9.798;2022-12-07T08:07:32;7.90;99.90
7216;DHT22;3649;48.798;9.798;2022-12-07T08:09:59;7.90;99.90
7216;DHT22;3649;48.798;9.798;2022-12-07T08:12:28;7.90;99.90
7216;DHT22;3649;48.798;9.798;2022-12-07T08:14:55;8.00;99.90
7216;DHT22;3649;48.798;9.798;2022-12-07T08:17:21;8.00;99.90
7216;DHT22;3649;48.798;9.798;2022-12-07T08:19:48;8.00;99.90
7216;DHT22;3649;48.798;9.798;2022-12-07T08:22:15;8.00;99.90
7216;DHT22;3649;48.798;9.798;2022-12-07T08:24:42;8.10;99.90
7216;DHT22;3649;48.798;9.798;2022-12-07T08:27:14;8.10;99.90
7216;DHT22;3649;48.798;9.798;2022-12-07T08:29:41;8.10;99.90
7216;DHT22;3649;48.798;9.798;2022-12-07T08:32:08;8.00;99.90
7216;DHT22;3649;48.798;9.798;2022-12-07T08:34:35;8.30;99.90
7216;DHT22;3649;48.798;9.798;2022-12-07T08:37:03;8.00;99.90
7216;DHT22;3649;48.798;9.798;2022-12-07T08:39:30;8.00;99.90
7216;DHT22;3649;48.798;9.798;2022-12-07T08:41:58;8.10;99.90
7216;DHT22;3649;48.798;9.798;2022-12-07T08:44:25;8.00;99.90
7216;DHT22;3649;48.798;9.798;2022-12-07T08:46:58;8.10;99.90
7216;DHT22;3649;48.798;9.798;2022-12-07T08:49:44;8.10;99.90
7216;DHT22;3649;48.798;9.798;2022-12-07T08:52:13;8.20;99.90
7216;DHT22;3649;48.798;9.798;2022-12-07T08:54:41;8.20;99.90
7216;DHT22;3649;48.798;9.798;2022-12-07T08:57:09;8.20;99.90
7216;DHT22;3649;48.798;9.798;2022-12-07T08:59:37;8.20;99.90
7216;DHT22;3649;48.798;9.798;2022-12-07T09:02:05;8.20;99.90
7216;DHT22;3649;48.798;9.798;2022-12-07T09:04:32;8.20;99.90
7216;DHT22;3649;48.798;9.798;2022-12-07T09:06:59;8.20;99.90
7216;DHT22;3649;48.798;9.798;2022-12-07T09:09:27;8.30;99.90
7216;DHT22;3649;48.798;9.798;2022-12-07T09:11:53;8.20;99.90
7216;DHT22;3649;48.798;9.798;2022-12-07T09:14:20;8.20;99.90
7216;DHT22;3649;48.798;9.798;2022-12-07T09:16:47;8.20;99.90
7216;DHT22;3649;48.798;9.798;2022-12-07T09:19:14;8.30;99.90
7216;DHT22;3649;48.798;9.798;2022-12-07T09:21:41;8.30;99.90
7216;DHT22;3649;48.798;9.798;2022-12-07T09:24:08;8.30;99.90
7216;DHT22;3649;48.798;9.798;2022-12-07T09:26:36;8.30;99.90
7216;DHT22;3649;48.798;9.798;2022-12-07T09:29:05;8.40;99.90
7216;DHT22;3649;48.798;9.798;2022-12-07T09:31:31;8.40;99.90
7216;DHT22;3649;48.798;9.798;2022-12-07T09:34:00;8.40;99.90
7216;DHT22;3649;48.798;9.798;2022-12-07T09:36:28;8.40;99.90
7216;DHT22;3649;48.798;9.798;2022-12-07T09:38:55;8.40;99.90
7216;DHT22;3649;48.798;9.798;2022-12-07T09:41:23;8.50;99.90
7216;DHT22;3649;48.798;9.798;2022-12-07T09:43:57;8.70;99.90
7216;DHT22;3649;48.798;9.798;2022-12-07T09:46:32;8.40;99.90
7216;DHT22;3649;48.798;9.798;2022-12-07T09:49:01;8.40;99.90
7216;DHT22;3649;48.798;9.798;2022-12-07T09:51:29;8.40;99.90
7216;DHT22;3649;48.798;9.798;2022-12-07T09:53:57;8.50;99.90
7216;DHT22;3649;48.798;9.798;2022-12-07T09:56:25;8.50;99.90
7216;DHT22;3649;48.798;9.798;2022-12-07T09:58:59;8.50;99.90
7216;DHT22;3649;48.798;9.798;2022-12-07T10:01:30;8.50;99.90
7216;DHT22;3649;48.798;9.798;2022-12-07T10:06:33;8.50;99.90
7216;DHT22;3649;48.798;9.798;2022-12-07T10:09:00;9.00;99.90
7216;DHT22;3649;48.798;9.798;2022-12-07T10:11:27;8.50;99.90
7216;DHT22;3649;48.798;9.798;2022-12-07T10:13:54;8.50;99.90
7216;DHT22;3649;48.798;9.798;2022-12-07T10:19:26;8.50;99.90
7216;DHT22;3649;48.798;9.798;2022-12-07T10:24:25;8.50;99.90
7216;DHT22;3649;48.798;9.798;2022-12-07T10:26:54;8.50;99.90
7216;DHT22;3649;48.798;9.798;2022-12-07T10:29:32;8.50;99.90
7216;DHT22;3649;48.798;9.798;2022-12-07T10:32:02;8.50;99.90
7216;DHT22;3649;48.798;9.798;2022-12-07T10:34:33;8.50;99.90
7216;DHT22;3649;48.798;9.798;2022-12-07T10:39:56;8.40;99.90
7216;DHT22;3649;48.798;9.798;2022-12-07T10:42:27;8.50;99.90
7216;DHT22;3649;48.798;9.798;2022-12-07T10:45:17;8.60;99.90
7216;DHT22;3649;48.798;9.798;2022-12-07T10:50:46;8.60;99.90
7216;DHT22;3649;48.798;9.798;2022-12-07T10:59:23;8.60;99.90
7216;DHT22;3649;48.798;9.798;2022-12-07T11:02:01;8.70;99.90
7216;DHT22;3649;48.798;9.798;2022-12-07T11:07:37;8.80;99.90
7216;DHT22;3649;48.798;9.798;2022-12-07T11:18:43;8.80;99.90
7216;DHT22;3649;48.798;9.798;2022-12-07T11:21:27;8.80;99.90
7216;DHT22;3649;48.798;9.798;2022-12-07T11:29:17;8.80;99.90
7216;DHT22;3649;48.798;9.798;2022-12-07T11:37:34;8.90;99.90
7216;DHT22;3649;48.798;9.798;2022-12-07T11:43:04;8.90;99.90
7216;DHT22;3649;48.798;9.798;2022-12-07T11:45:34;8.90;99.90
7216;DHT22;3649;48.798;9.798;2022-12-07T11:48:17;9.00;99.90
7216;DHT22;3649;48.798;9.798;2022-12-07T11:50:54;9.00;99.90
7216;DHT22;3649;48.798;9.798;2022-12-07T11:53:28;8.90;99.90
7216;DHT22;3649;48.798;9.798;2022-12-07T11:56:14;8.90;99.90
7216;DHT22;3649;48.798;9.798;2022-12-07T12:06:38;8.80;99.90
7216;DHT22;3649;48.798;9.798;2022-12-07T12:15:33;8.90;99.90
7216;DHT22;3649;48.798;9.798;2022-12-07T12:26:23;9.70;99.90
7216;DHT22;3649;48.798;9.798;2022-12-07T12:28:58;8.90;99.90
7216;DHT22;3649;48.798;9.798;2022-12-07T12:31:37;8.90;99.90
7216;DHT22;3649;48.798;9.798;2022-12-07T12:34:40;8.90;99.90
7216;DHT22;3649;48.798;9.798;2022-12-07T12:42:53;9.10;99.90
7216;DHT22;3649;48.798;9.798;2022-12-07T12:45:25;9.10;99.90
7216;DHT22;3649;48.798;9.798;2022-12-07T12:48:03;9.20;99.90
7216;DHT22;3649;48.798;9.798;2022-12-07T12:50:36;9.10;99.90
7216;DHT22;3649;48.798;9.798;2022-12-07T12:55:46;9.30;99.90
7216;DHT22;3649;48.798;9.798;2022-12-07T13:00:46;9.20;99.90
7216;DHT22;3649;48.798;9.798;2022-12-07T13:03:40;9.30;99.90
7216;DHT22;3649;48.798;9.798;2022-12-07T13:06:19;9.20;99.90
7216;DHT22;3649;48.798;9.798;2022-12-07T13:08:46;9.20;99.90
7216;DHT22;3649;48.798;9.798;2022-12-07T13:11:37;9.20;99.90
7216;DHT22;3649;48.798;9.798;2022-12-07T13:20:01;9.10;99.90
7216;DHT22;3649;48.798;9.798;2022-12-07T13:27:31;9.30;99.90
7216;DHT22;3649;48.798;9.798;2022-12-07T13:29:59;9.30;99.90
7216;DHT22;3649;48.798;9.798;2022-12-07T13:32:27;9.30;99.90
7216;DHT22;3649;48.798;9.798;2022-12-07T13:34:55;9.20;99.90
7216;DHT22;3649;48.798;9.798;2022-12-07T13:37:27;9.20;99.90
7216;DHT22;3649;48.798;9.798;2022-12-07T13:40:18;9.10;99.90
7216;DHT22;3649;48.798;9.798;2022-12-07T13:42:46;9.00;99.90
7216;DHT22;3649;48.798;9.798;2022-12-07T13:45:31;9.00;99.90
7216;DHT22;3649;48.798;9.798;2022-12-07T13:48:46;9.00;99.90
7216;DHT22;3649;48.798;9.798;2022-12-07T13:51:22;9.00;99.90
7216;DHT22;3649;48.798;9.798;2022-12-07T13:53:53;9.00;99.90
7216;DHT22;3649;48.798;9.798;2022-12-07T13:56:28;9.00;99.90
7216;DHT22;3649;48.798;9.798;2022-12-07T13:58:58;9.00;99.90
7216;DHT22;3649;48.798;9.798;2022-12-07T14:01:30;9.10;99.90
7216;DHT22;3649;48.798;9.798;2022-12-07T14:04:38;9.10;99.90
7216;DHT22;3649;48.798;9.798;2022-12-07T14:07:25;9.20;99.90
7216;DHT22;3649;48.798;9.798;2022-12-07T14:10:04;9.20;99.90
7216;DHT22;3649;48.798;9.798;2022-12-07T14:12:32;9.10;99.90
7216;DHT22;3649;48.798;9.798;2022-12-07T14:15:02;9.10;99.90
7216;DHT22;3649;48.798;9.798;2022-12-07T14:17:30;9.10;99.90
7216;DHT22;3649;48.798;9.798;2022-12-07T14:19:59;9.00;99.90
7216;DHT22;3649;48.798;9.798;2022-12-07T14:22:38;9.10;99.90
7216;DHT22;3649;48.798;9.798;2022-12-07T14:25:23;9.10;99.90
7216;DHT22;3649;48.798;9.798;2022-12-07T14:27:52;9.10;99.90
7216;DHT22;3649;48.798;9.798;2022-12-07T14:30:23;9.10;99.90
7216;DHT22;3649;48.798;9.798;2022-12-07T14:32:53;9.10;99.90
7216;DHT22;3649;48.798;9.798;2022-12-07T14:35:21;9.10;99.90
7216;DHT22;3649;48.798;9.798;2022-12-07T14:37:49;9.10;99.90
7216;DHT22;3649;48.798;9.798;2022-12-07T14:40:36;9.20;99.90
7216;DHT22;3649;48.798;9.798;2022-12-07T14:43:15;9.10;99.90
7216;DHT22;3649;48.798;9.798;2022-12-07T14:45:43;9.00;99.90
7216;DHT22;3649;48.798;9.798;2022-12-07T14:48:15;8.90;99.90
7216;DHT22;3649;48.798;9.798;2022-12-07T14:51:02;8.90;99.90
7216;DHT22;3649;48.798;9.798;2022-12-07T14:53:51;8.90;99.90
7216;DHT22;3649;48.798;9.798;2022-12-07T14:56:24;8.90;99.90
7216;DHT22;3649;48.798;9.798;2022-12-07T14:58:51;8.80;99.90
7216;DHT22;3649;48.798;9.798;2022-12-07T15:01:18;8.90;99.90
7216;DHT22;3649;48.798;9.798;2022-12-07T15:03:45;8.90;99.90
7216;DHT22;3649;48.798;9.798;2022-12-07T15:06:17;8.90;99.90
7216;DHT22;3649;48.798;9.798;2022-12-07T15:08:44;8.90;99.90
7216;DHT22;3649;48.798;9.798;2022-12-07T15:11:15;8.90;99.90
7216;DHT22;3649;48.798;9.798;2022-12-07T15:13:42;8.90;99.90
7216;DHT22;3649;48.798;9.798;2022-12-07T15:16:28;8.90;99.90
7216;DHT22;3649;48.798;9.798;2022-12-07T15:19:17;8.90;99.90
7216;DHT22;3649;48.798;9.798;2022-12-07T15:21:54;8.90;99.90
7216;DHT22;3649;48.798;9.798;2022-12-07T15:24:21;8.90;99.90
7216;DHT22;3649;48.798;9.798;2022-12-07T15:26:48;8.90;99.90
7216;DHT22;3649;48.798;9.798;2022-12-07T15:29:15;9.00;99.90
7216;DHT22;3649;48.798;9.798;2022-12-07T15:31:50;8.90;99.90
7216;DHT22;3649;48.798;9.798;2022-12-07T15:34:26;8.80;99.90
7216;DHT22;3649;48.798;9.798;2022-12-07T15:37:01;8.70;99.90
7216;DHT22;3649;48.798;9.798;2022-12-07T15:39:28;8.70;99.90
7216;DHT22;3649;48.798;9.798;2022-12-07T15:41:55;8.80;99.90
7216;DHT22;3649;48.798;9.798;2022-12-07T15:44:22;8.80;99.90
7216;DHT22;3649;48.798;9.798;2022-12-07T15:47:07;8.80;99.90
7216;DHT22;3649;48.798;9.798;2022-12-07T15:49:34;8.80;99.90
7216;DHT22;3649;48.798;9.798;2022-12-07T15:52:00;8.80;99.90
7216;DHT22;3649;48.798;9.798;2022-12-07T15:54:28;8.80;99.90
7216;DHT22;3649;48.798;9.798;2022-12-07T15:56:56;8.80;99.90
7216;DHT22;3649;48.798;9.798;2022-12-07T15:59:23;8.80;99.90
7216;DHT22;3649;48.798;9.798;2022-12-07T16:01:50;8.80;99.90
7216;DHT22;3649;48.798;9.798;2022-12-07T16:04:17;8.80;99.90
7216;DHT22;3649;48.798;9.798;2022-12-07T16:06:44;8.90;99.90
7216;DHT22;3649;48.798;9.798;2022-12-07T16:09:11;8.90;99.90
7216;DHT22;3649;48.798;9.798;2022-12-07T16:11:38;8.90;99.90
7216;DHT22;3649;48.798;9.798;2022-12-07T16:14:04;9.10;99.90
7216;DHT22;3649;48.798;9.798;2022-12-07T16:16:31;8.90;99.90
7216;DHT22;3649;48.798;9.798;2022-12-07T16:18:58;8.90;99.90
7216;DHT22;3649;48.798;9.798;2022-12-07T16:21:25;8.80;99.90
7216;DHT22;3649;48.798;9.798;2022-12-07T16:23:52;8.80;99.90
7216;DHT22;3649;48.798;9.798;2022-12-07T16:26:21;8.70;99.90
7216;DHT22;3649;48.798;9.798;2022-12-07T16:28:49;8.80;99.90
7216;DHT22;3649;48.798;9.798;2022-12-07T16:31:20;8.70;99.90
7216;DHT22;3649;48.798;9.798;2022-12-07T16:33:48;8.70;99.90
7216;DHT22;3649;48.798;9.798;2022-12-07T16:36:16;8.80;99.90
7216;DHT22;3649;48.798;9.798;2022-12-07T16:39:04;8.80;99.90
7216;DHT22;3649;48.798;9.798;2022-12-07T16:41:32;8.80;99.90
7216;DHT22;3649;48.798;9.798;2022-12-07T16:44:07;8.70;99.90
7216;DHT22;3649;48.798;9.798;2022-12-07T16:46:35;8.80;99.90
7216;DHT22;3649;48.798;9.798;2022-12-07T16:49:03;8.80;99.90
7216;DHT22;3649;48.798;9.798;2022-12-07T16:51:30;8.70;99.90
7216;DHT22;3649;48.798;9.798;2022-12-07T16:53:57;8.80;99.90
7216;DHT22;3649;48.798;9.798;2022-12-07T16:56:25;9.00;99.90
7216;DHT22;3649;48.798;9.798;2022-12-07T16:58:53;8.70;99.90
7216;DHT22;3649;48.798;9.798;2022-12-07T17:01:22;8.70;99.90
7216;DHT22;3649;48.798;9.798;2022-12-07T17:03:49;8.60;99.90
7216;DHT22;3649;48.798;9.798;2022-12-07T17:06:19;8.50;99.90
7216;DHT22;3649;48.798;9.798;2022-12-07T17:08:47;8.50;99.90
7216;DHT22;3649;48.798;9.798;2022-12-07T17:11:17;8.50;99.90
7216;DHT22;3649;48.798;9.798;2022-12-07T17:13:44;8.50;99.90
7216;DHT22;3649;48.798;9.798;2022-12-07T17:16:30;8.50;99.90
7216;DHT22;3649;48.798;9.798;2022-12-07T17:18:57;8.50;99.90
7216;DHT22;3649;48.798;9.798;2022-12-07T17:21:24;8.60;99.90
7216;DHT22;3649;48.798;9.798;2022-12-07T17:23:51;8.60;99.90
7216;DHT22;3649;48.798;9.798;2022-12-07T17:26:21;8.60;99.90
7216;DHT22;3649;48.798;9.798;2022-12-07T17:28:48;8.60;99.90
7216;DHT22;3649;48.798;9.798;2022-12-07T17:31:17;8.60;99.90
7216;DHT22;3649;48.798;9.798;2022-12-07T17:33:45;8.50;99.90
7216;DHT22;3649;48.798;9.798;2022-12-07T17:36:17;8.50;99.90
7216;DHT22;3649;48.798;9.798;2022-12-07T17:38:44;8.50;99.90
7216;DHT22;3649;48.798;9.798;2022-12-07T17:41:16;8.40;99.90
7216;DHT22;3649;48.798;9.798;2022-12-07T17:44:05;8.40;99.90
7216;DHT22;3649;48.798;9.798;2022-12-07T17:46:32;8.40;99.90
7216;DHT22;3649;48.798;9.798;2022-12-07T17:49:00;8.50;99.90
7216;DHT22;3649;48.798;9.798;2022-12-07T17:51:27;8.50;99.90
7216;DHT22;3649;48.798;9.798;2022-12-07T17:54:14;8.50;99.90
7216;DHT22;3649;48.798;9.798;2022-12-07T17:56:41;8.60;99.90
7216;DHT22;3649;48.798;9.798;2022-12-07T17:59:08;8.50;99.90
7216;DHT22;3649;48.798;9.798;2022-12-07T18:01:35;8.60;99.90
7216;DHT22;3649;48.798;9.798;2022-12-07T18:04:02;8.80;99.90
7216;DHT22;3649;48.798;9.798;2022-12-07T18:06:30;8.60;99.90
7216;DHT22;3649;48.798;9.798;2022-12-07T18:08:58;8.60;99.90
7216;DHT22;3649;48.798;9.798;2022-12-07T18:11:25;8.50;99.90
7216;DHT22;3649;48.798;9.798;2022-12-07T18:13:52;8.40;99.90
7216;DHT22;3649;48.798;9.798;2022-12-07T18:16:22;8.40;99.90
7216;DHT22;3649;48.798;9.798;2022-12-07T18:18:50;8.40;99.90
7216;DHT22;3649;48.798;9.798;2022-12-07T18:21:24;8.40;99.90
7216;DHT22;3649;48.798;9.798;2022-12-07T18:23:54;8.50;99.90
7216;DHT22;3649;48.798;9.798;2022-12-07T18:26:23;8.50;99.90
7216;DHT22;3649;48.798;9.798;2022-12-07T18:28:50;8.50;99.90
7216;DHT22;3649;48.798;9.798;2022-12-07T18:31:18;8.50;99.90
7216;DHT22;3649;48.798;9.798;2022-12-07T18:33:47;8.50;99.90
7216;DHT22;3649;48.798;9.798;2022-12-07T18:36:15;8.40;99.90
7216;DHT22;3649;48.798;9.798;2022-12-07T18:38:43;8.40;99.90
7216;DHT22;3649;48.798;9.798;2022-12-07T18:41:12;8.50;99.90
7216;DHT22;3649;48.798;9.798;2022-12-07T18:43:40;8.40;99.90
7216;DHT22;3649;48.798;9.798;2022-12-07T18:46:16;8.40;99.90
7216;DHT22;3649;48.798;9.798;2022-12-07T18:48:44;8.40;99.90